sensor_id;sensor_type;location;lat;lon;timestamp;pressure;altitude;pressure_sealevel;temperature;humidity
13695;BME280;6919;52.344;14.518;2023-08-07T00:02:28;99503.53;;;14.37;100.00
13695;BME280;6919;52.344;14.518;2023-08-07T00:04:56;99498.34;;;14.35;100.00
13695;BME280;6919;52.344;14.518;2023-08-07T00:07:25;99500.00;;;14.30;100.00
13695;BME280;6919;52.344;14.518;2023-08-07T00:09:53;99503.34;;;14.32;100.00
13695;BME280;6919;52.344;14.518;2023-08-07T00:12:21;99504.13;;;14.32;100.00
13695;BME280;6919;52.344;14.518;2023-08-07T00:14:50;99499.59;;;14.33;100.00
13695;BME280;6919;52.344;14.518;2023-08-07T00:17:20;99491.72;;;14.44;100.00
13695;BME280;6919;52.344;14.518;2023-08-07T00:19:48;99488.81;;;14.33;100.00
13695;BME280;6919;52.344;14.518;2023-08-07T00:22:16;99494.22;;;14.46;100.00
13695;BME280;6919;52.344;14.518;2023-08-07T00:24:45;99494.59;;;14.30;100.00
13695;BME280;6919;52.344;14.518;2023-08-07T00:27:13;99498.53;;;14.27;100.00
13695;BME280;6919;52.344;14.518;2023-08-07T00:29:42;99499.59;;;14.33;100.00
13695;BME280;6919;52.344;14.518;2023-08-07T00:32:10;99507.47;;;14.28;100.00
13695;BME280;6919;52.344;14.518;2023-08-07T00:34:40;99501.25;;;14.34;100.00
13695;BME280;6919;52.344;14.518;2023-08-07T00:37:09;99495.03;;;14.33;100.00
13695;BME280;6919;52.344;14.518;2023-08-07T00:39:37;99495.03;;;14.33;100.00
13695;BME280;6919;52.344;14.518;2023-08-07T00:42:06;99492.31;;;14.27;100.00
13695;BME280;6919;52.344;14.518;2023-08-07T00:44:35;99483.56;;;14.18;100.00
13695;BME280;6919;52.344;14.518;2023-08-07T00:47:04;99478.19;;;14.18;100.00
13695;BME280;6919;52.344;14.518;2023-08-07T00:49:33;99469.88;;;14.20;100.00
13695;BME280;6919;52.344;14.518;2023-08-07T00:52:04;99461.78;;;14.07;100.00
13695;BME280;6919;52.344;14.518;2023-08-07T00:54:33;99459.69;;;14.09;100.00
13695;BME280;6919;52.344;14.518;2023-08-07T00:57:11;99469.66;;;14.15;100.00
13695;BME280;6919;52.344;14.518;2023-08-07T00:59:40;99471.31;;;14.16;100.00
13695;BME280;6919;52.344;14.518;2023-08-07T01:02:10;99465.13;;;14.15;100.00
13695;BME280;6919;52.344;14.518;2023-08-07T01:04:41;99465.50;;;14.12;100.00
13695;BME280;6919;52.344;14.518;2023-08-07T01:07:10;99469.22;;;14.05;100.00
13695;BME280;6919;52.344;14.518;2023-08-07T01:09:38;99479.19;;;14.11;100.00
13695;BME280;6919;52.344;14.518;2023-08-07T01:12:15;99463.63;;;14.00;100.00
13695;BME280;6919;52.344;14.518;2023-08-07T01:14:53;99474.22;;;14.08;100.00
13695;BME280;6919;52.344;14.518;2023-08-07T01:17:23;99467.97;;;14.01;100.00
13695;BME280;6919;52.344;14.518;2023-08-07T01:19:52;99469.22;;;14.05;100.00
13695;BME280;6919;52.344;14.518;2023-08-07T01:22:22;99470.88;;;14.06;100.00
13695;BME280;6919;52.344;14.518;2023-08-07T01:24:51;99482.94;;;14.10;100.00
13695;BME280;6919;52.344;14.518;2023-08-07T01:27:35;99479.78;;;14.06;100.00
13695;BME280;6919;52.344;14.518;2023-08-07T01:30:16;99477.91;;;14.00;100.00
13695;BME280;6919;52.344;14.518;2023-08-07T01:32:57;99477.50;;;13.97;100.00
13695;BME280;6919;52.344;14.518;2023-08-07T01:35:33;99483.94;;;14.09;100.00
13695;BME280;6919;52.344;14.518;2023-08-07T01:38:06;99489.72;;;13.99;100.00
13695;BME280;6919;52.344;14.518;2023-08-07T01:40:37;99499.06;;;14.03;100.00
13695;BME280;6919;52.344;14.518;2023-08-07T01:43:07;99499.47;;;14.00;100.00
13695;BME280;6919;52.344;14.518;2023-08-07T01:45:35;99499.91;;;14.04;100.00
13695;BME280;6919;52.344;14.518;2023-08-07T01:48:04;99515.03;;;14.05;100.00
13695;BME280;6919;52.344;14.518;2023-08-07T01:50:32;99514.63;;;14.08;100.00
13695;BME280;6919;52.344;14.518;2023-08-07T01:53:01;99513.59;;;14.02;100.00
13695;BME280;6919;52.344;14.518;2023-08-07T01:55:31;99511.94;;;14.08;100.00
13695;BME280;6919;52.344;14.518;2023-08-07T01:57:59;99513.59;;;14.09;100.00
13695;BME280;6919;52.344;14.518;2023-08-07T02:00:27;99516.47;;;14.01;100.00
13695;BME280;6919;52.344;14.518;2023-08-07T02:02:56;99512.75;;;14.02;100.00
13695;BME280;6919;52.344;14.518;2023-08-07T02:05:24;99520.44;;;14.05;100.00
13695;BME280;6919;52.344;14.518;2023-08-07T02:07:53;99523.94;;;13.99;100.00
13695;BME280;6919;52.344;14.518;2023-08-07T02:10:23;99520.22;;;14.06;100.00
13695;BME280;6919;52.344;14.518;2023-08-07T02:12:53;99516.09;;;14.10;100.00
13695;BME280;6919;52.344;14.518;2023-08-07T02:15:21;99520.03;;;14.08;100.00
13695;BME280;6919;52.344;14.518;2023-08-07T02:17:50;99519.00;;;14.09;100.00
13695;BME280;6919;52.344;14.518;2023-08-07T02:20:18;99512.59;;;14.16;100.00
13695;BME280;6919;52.344;14.518;2023-08-07T02:22:46;99512.16;;;14.13;100.00
13695;BME280;6919;52.344;14.518;2023-08-07T02:25:15;99517.53;;;14.13;100.00
13695;BME280;6919;52.344;14.518;2023-08-07T02:27:43;99516.94;;;14.11;100.00
13695;BME280;6919;52.344;14.518;2023-08-07T02:30:13;99519.97;;;13.95;100.00
13695;BME280;6919;52.344;14.518;2023-08-07T02:32:41;99536.41;;;14.06;100.00
13695;BME280;6919;52.344;14.518;2023-08-07T02:35:11;99535.34;;;14.01;100.00
13695;BME280;6919;52.344;14.518;2023-08-07T02:37:40;99534.72;;;13.99;100.00
13695;BME280;6919;52.344;14.518;2023-08-07T02:40:09;99528.53;;;14.05;100.00
13695;BME280;6919;52.344;14.518;2023-08-07T02:42:40;99526.22;;;13.95;100.00
13695;BME280;6919;52.344;14.518;2023-08-07T02:45:09;99526.84;;;13.97;100.00
13695;BME280;6919;52.344;14.518;2023-08-07T02:47:39;99520.81;;;13.95;100.00
13695;BME280;6919;52.344;14.518;2023-08-07T02:50:08;99535.13;;;13.96;100.00
13695;BME280;6919;52.344;14.518;2023-08-07T02:52:36;99545.28;;;14.00;100.00
13695;BME280;6919;52.344;14.518;2023-08-07T02:55:06;99544.88;;;14.03;100.00
13695;BME280;6919;52.344;14.518;2023-08-07T02:57:34;99547.59;;;14.03;100.00
13695;BME280;6919;52.344;14.518;2023-08-07T03:00:03;99549.47;;;14.09;100.00
13695;BME280;6919;52.344;14.518;2023-08-07T03:02:31;99551.13;;;14.04;100.00
13695;BME280;6919;52.344;14.518;2023-08-07T03:05:01;99549.66;;;14.01;100.00
13695;BME280;6919;52.344;14.518;2023-08-07T03:07:29;99552.16;;;14.03;100.00
13695;BME280;6919;52.344;14.518;2023-08-07T03:09:58;99558.81;;;14.07;100.00
13695;BME280;6919;52.344;14.518;2023-08-07T03:12:26;99555.88;;;14.02;100.00
13695;BME280;6919;52.344;14.518;2023-08-07T03:14:54;99551.53;;;14.07;100.00
13695;BME280;6919;52.344;14.518;2023-08-07T03:17:22;99549.47;;;14.03;100.00
13695;BME280;6919;52.344;14.518;2023-08-07T03:19:51;99555.88;;;14.02;100.00
13695;BME280;6919;52.344;14.518;2023-08-07T03:22:20;99553.38;;;14.00;100.00
13695;BME280;6919;52.344;14.518;2023-08-07T03:24:49;99557.09;;;13.99;100.00
13695;BME280;6919;52.344;14.518;2023-08-07T03:27:17;99567.09;;;14.05;100.00
13695;BME280;6919;52.344;14.518;2023-08-07T03:29:45;99555.47;;;14.05;100.00
13695;BME280;6919;52.344;14.518;2023-08-07T03:32:13;99560.88;;;14.05;100.00
13695;BME280;6919;52.344;14.518;2023-08-07T03:34:42;99561.50;;;14.07;100.00
13695;BME280;6919;52.344;14.518;2023-08-07T03:37:10;99562.09;;;14.02;100.00
13695;BME280;6919;52.344;14.518;2023-08-07T03:39:40;99567.91;;;14.06;100.00
13695;BME280;6919;52.344;14.518;2023-08-07T03:42:10;99577.28;;;14.10;100.00
13695;BME280;6919;52.344;14.518;2023-08-07T03:44:39;99576.25;;;14.17;100.00
13695;BME280;6919;52.344;14.518;2023-08-07T03:47:07;99578.94;;;14.11;100.00
13695;BME280;6919;52.344;14.518;2023-08-07T03:49:36;99584.06;;;14.06;100.00
13695;BME280;6919;52.344;14.518;2023-08-07T03:52:05;99585.78;;;14.13;100.00
13695;BME280;6919;52.344;14.518;2023-08-07T03:54:33;99585.97;;;14.12;100.00
13695;BME280;6919;52.344;14.518;2023-08-07T03:57:03;99580.38;;;14.13;100.00
13695;BME280;6919;52.344;14.518;2023-08-07T03:59:32;99576.63;;;14.08;100.00
13695;BME280;6919;52.344;14.518;2023-08-07T04:02:00;99582.41;;;14.05;100.00
13695;BME280;6919;52.344;14.518;2023-08-07T04:04:28;99591.78;;;14.09;100.00
13695;BME280;6919;52.344;14.518;2023-08-07T04:06:57;99594.72;;;14.20;100.00
13695;BME280;6919;52.344;14.518;2023-08-07T04:09:25;99588.50;;;14.20;100.00
13695;BME280;6919;52.344;14.518;2023-08-07T04:11:55;99594.34;;;14.23;100.00
13695;BME280;6919;52.344;14.518;2023-08-07T04:14:24;99586.63;;;14.20;100.00
13695;BME280;6919;52.344;14.518;2023-08-07T04:16:53;99592.88;;;14.21;100.00
13695;BME280;6919;52.344;14.518;2023-08-07T04:19:23;99592.88;;;14.21;100.00
13695;BME280;6919;52.344;14.518;2023-08-07T04:21:51;99600.41;;;14.32;100.00
13695;BME280;6919;52.344;14.518;2023-08-07T04:24:20;99603.09;;;14.32;100.00
13695;BME280;6919;52.344;14.518;2023-08-07T04:26:48;99608.09;;;14.41;100.00
13695;BME280;6919;52.344;14.518;2023-08-07T04:29:16;99612.50;;;14.55;100.00
13695;BME280;6919;52.344;14.518;2023-08-07T04:31:46;99618.34;;;14.65;100.00
13695;BME280;6919;52.344;14.518;2023-08-07T04:34:14;99618.78;;;14.76;100.00
13695;BME280;6919;52.344;14.518;2023-08-07T04:36:42;99603.41;;;14.76;100.00
13695;BME280;6919;52.344;14.518;2023-08-07T04:39:11;99602.19;;;14.79;100.00
13695;BME280;6919;52.344;14.518;2023-08-07T04:41:40;99599.69;;;14.90;100.00
13695;BME280;6919;52.344;14.518;2023-08-07T04:44:10;99595.13;;;14.91;100.00
13695;BME280;6919;52.344;14.518;2023-08-07T04:46:38;99597.00;;;14.90;100.00
13695;BME280;6919;52.344;14.518;2023-08-07T04:49:09;99600.13;;;14.94;100.00
13695;BME280;6919;52.344;14.518;2023-08-07T04:51:37;99595.34;;;14.96;100.00
13695;BME280;6919;52.344;14.518;2023-08-07T04:54:06;99592.25;;;15.05;100.00
13695;BME280;6919;52.344;14.518;2023-08-07T04:56:34;99596.81;;;14.98;100.00
13695;BME280;6919;52.344;14.518;2023-08-07T04:59:02;99594.09;;;15.11;100.00
13695;BME280;6919;52.344;14.518;2023-08-07T05:01:30;99589.13;;;15.21;100.00
13695;BME280;6919;52.344;14.518;2023-08-07T05:03:59;99578.94;;;15.49;100.00
13695;BME280;6919;52.344;14.518;2023-08-07T05:06:30;99570.84;;;15.49;100.00
13695;BME280;6919;52.344;14.518;2023-08-07T05:08:58;99567.50;;;15.47;100.00
13695;BME280;6919;52.344;14.518;2023-08-07T05:11:26;99567.94;;;15.51;100.00
13695;BME280;6919;52.344;14.518;2023-08-07T05:13:55;99561.84;;;15.68;100.00
13695;BME280;6919;52.344;14.518;2023-08-07T05:16:23;99553.31;;;15.71;100.00
13695;BME280;6919;52.344;14.518;2023-08-07T05:18:52;99541.94;;;15.56;100.00
13695;BME280;6919;52.344;14.518;2023-08-07T05:21:20;99537.31;;;15.76;100.00
13695;BME280;6919;52.344;14.518;2023-08-07T05:23:50;99539.41;;;15.68;100.00
13695;BME280;6919;52.344;14.518;2023-08-07T05:26:20;99540.63;;;15.78;100.00
13695;BME280;6919;52.344;14.518;2023-08-07T05:28:48;99550.19;;;15.74;100.00
13695;BME280;6919;52.344;14.518;2023-08-07T05:31:17;99538.75;;;15.79;100.00
13695;BME280;6919;52.344;14.518;2023-08-07T05:33:45;99541.28;;;15.67;100.00
13695;BME280;6919;52.344;14.518;2023-08-07T05:36:13;99532.91;;;15.88;100.00
13695;BME280;6919;52.344;14.518;2023-08-07T05:38:41;99527.94;;;15.72;100.00
13695;BME280;6919;52.344;14.518;2023-08-07T05:41:11;99531.25;;;15.87;100.00
13695;BME280;6919;52.344;14.518;2023-08-07T05:43:40;99532.16;;;16.12;100.00
13695;BME280;6919;52.344;14.518;2023-08-07T05:46:08;99522.53;;;16.23;100.00
13695;BME280;6919;52.344;14.518;2023-08-07T05:48:37;99516.19;;;16.48;100.00
13695;BME280;6919;52.344;14.518;2023-08-07T05:51:05;99513.63;;;16.53;100.00
13695;BME280;6919;52.344;14.518;2023-08-07T05:53:35;99513.88;;;16.76;100.00
13695;BME280;6919;52.344;14.518;2023-08-07T05:56:03;99505.44;;;16.91;100.00
13695;BME280;6919;52.344;14.518;2023-08-07T05:58:33;99511.16;;;17.01;100.00
13695;BME280;6919;52.344;14.518;2023-08-07T06:01:01;99503.66;;;17.03;100.00
13695;BME280;6919;52.344;14.518;2023-08-07T06:03:30;99501.63;;;16.98;100.00
13695;BME280;6919;52.344;14.518;2023-08-07T06:05:58;99503.59;;;17.09;100.00
13695;BME280;6919;52.344;14.518;2023-08-07T06:08:27;99490.06;;;17.09;100.00
13695;BME280;6919;52.344;14.518;2023-08-07T06:10:56;99494.16;;;17.18;100.00
13695;BME280;6919;52.344;14.518;2023-08-07T06:13:24;99488.09;;;17.16;100.00
13695;BME280;6919;52.344;14.518;2023-08-07T06:16:04;99475.88;;;17.32;100.00
13695;BME280;6919;52.344;14.518;2023-08-07T06:18:33;99480.31;;;17.26;100.00
13695;BME280;6919;52.344;14.518;2023-08-07T06:21:02;99481.84;;;17.59;100.00
13695;BME280;6919;52.344;14.518;2023-08-07T06:23:33;99476.47;;;16.91;100.00
13695;BME280;6919;52.344;14.518;2023-08-07T06:26:02;99490.28;;;17.08;100.00
13695;BME280;6919;52.344;14.518;2023-08-07T06:28:32;99483.38;;;16.87;100.00
13695;BME280;6919;52.344;14.518;2023-08-07T06:31:04;99497.00;;;17.23;100.00
13695;BME280;6919;52.344;14.518;2023-08-07T06:33:33;99491.63;;;17.60;100.00
13695;BME280;6919;52.344;14.518;2023-08-07T06:36:03;99490.44;;;17.13;100.00
13695;BME280;6919;52.344;14.518;2023-08-07T06:38:32;99484.84;;;17.08;100.00
13695;BME280;6919;52.344;14.518;2023-08-07T06:41:00;99485.41;;;17.59;100.00
13695;BME280;6919;52.344;14.518;2023-08-07T06:43:29;99486.75;;;17.68;100.00
13695;BME280;6919;52.344;14.518;2023-08-07T06:45:58;99492.69;;;17.77;100.00
13695;BME280;6919;52.344;14.518;2023-08-07T06:48:28;99477.16;;;17.84;100.00
13695;BME280;6919;52.344;14.518;2023-08-07T06:50:56;99472.06;;;17.76;100.00
13695;BME280;6919;52.344;14.518;2023-08-07T06:53:28;99483.50;;;17.96;100.00
13695;BME280;6919;52.344;14.518;2023-08-07T06:55:56;99466.72;;;17.69;100.00
13695;BME280;6919;52.344;14.518;2023-08-07T06:58:24;99483.44;;;17.66;100.00
13695;BME280;6919;52.344;14.518;2023-08-07T07:00:52;99489.69;;;17.67;100.00
13695;BME280;6919;52.344;14.518;2023-08-07T07:03:21;99483.75;;;17.58;100.00
13695;BME280;6919;52.344;14.518;2023-08-07T07:05:50;99478.84;;;17.67;100.00
13695;BME280;6919;52.344;14.518;2023-08-07T07:08:19;99481.41;;;17.43;100.00
13695;BME280;6919;52.344;14.518;2023-08-07T07:10:47;99487.91;;;17.61;100.00
13695;BME280;6919;52.344;14.518;2023-08-07T07:13:16;99481.09;;;17.52;100.00
13695;BME280;6919;52.344;14.518;2023-08-07T07:15:44;99493.19;;;17.06;100.00
13695;BME280;6919;52.344;14.518;2023-08-07T07:18:12;99497.94;;;17.35;100.00
13695;BME280;6919;52.344;14.518;2023-08-07T07:20:41;99512.13;;;17.56;100.00
13695;BME280;6919;52.344;14.518;2023-08-07T07:23:10;99505.34;;;17.83;100.00
13695;BME280;6919;52.344;14.518;2023-08-07T07:25:38;99514.53;;;18.00;100.00
13695;BME280;6919;52.344;14.518;2023-08-07T07:28:07;99523.19;;;17.72;100.00
13695;BME280;6919;52.344;14.518;2023-08-07T07:30:35;99528.84;;;17.89;100.00
13695;BME280;6919;52.344;14.518;2023-08-07T07:33:04;99518.88;;;18.01;100.00
13695;BME280;6919;52.344;14.518;2023-08-07T07:35:37;99511.66;;;17.77;100.00
13695;BME280;6919;52.344;14.518;2023-08-07T07:38:06;99521.47;;;17.96;100.00
13695;BME280;6919;52.344;14.518;2023-08-07T07:40:36;99515.97;;;18.32;100.00
13695;BME280;6919;52.344;14.518;2023-08-07T07:43:05;99503.38;;;18.67;100.00
13695;BME280;6919;52.344;14.518;2023-08-07T07:45:33;99508.91;;;18.13;100.00
13695;BME280;6919;52.344;14.518;2023-08-07T07:48:03;99501.69;;;18.54;100.00
13695;BME280;6919;52.344;14.518;2023-08-07T07:50:33;99503.84;;;17.87;100.00
13695;BME280;6919;52.344;14.518;2023-08-07T07:53:01;99502.63;;;18.01;100.00
13695;BME280;6919;52.344;14.518;2023-08-07T07:55:29;99516.56;;;18.34;100.00
13695;BME280;6919;52.344;14.518;2023-08-07T07:57:59;99517.38;;;18.05;100.00
13695;BME280;6919;52.344;14.518;2023-08-07T08:00:27;99529.78;;;18.30;100.00
13695;BME280;6919;52.344;14.518;2023-08-07T08:02:56;99524.63;;;18.70;100.00
13695;BME280;6919;52.344;14.518;2023-08-07T08:05:24;99525.16;;;18.60;100.00
13695;BME280;6919;52.344;14.518;2023-08-07T08:07:53;99520.03;;;18.82;100.00
13695;BME280;6919;52.344;14.518;2023-08-07T08:10:21;99514.31;;;18.49;100.00
13695;BME280;6919;52.344;14.518;2023-08-07T08:12:49;99518.47;;;18.63;100.00
13695;BME280;6919;52.344;14.518;2023-08-07T08:15:19;99535.78;;;18.50;100.00
13695;BME280;6919;52.344;14.518;2023-08-07T08:17:48;99540.31;;;18.68;100.00
13695;BME280;6919;52.344;14.518;2023-08-07T08:20:17;99548.06;;;18.53;100.00
13695;BME280;6919;52.344;14.518;2023-08-07T08:22:46;99543.75;;;18.75;100.00
13695;BME280;6919;52.344;14.518;2023-08-07T08:25:15;99553.38;;;19.12;100.00
13695;BME280;6919;52.344;14.518;2023-08-07T08:27:44;99550.66;;;19.12;100.00
13695;BME280;6919;52.344;14.518;2023-08-07T08:30:13;99538.97;;;19.00;100.00
13695;BME280;6919;52.344;14.518;2023-08-07T08:32:43;99549.25;;;18.98;100.00
13695;BME280;6919;52.344;14.518;2023-08-07T08:35:12;99549.84;;;19.11;100.00
13695;BME280;6919;52.344;14.518;2023-08-07T08:37:40;99550.41;;;19.31;100.00
13695;BME280;6919;52.344;14.518;2023-08-07T08:40:09;99549.44;;;19.60;100.00
13695;BME280;6919;52.344;14.518;2023-08-07T08:42:44;99552.50;;;19.52;100.00
13695;BME280;6919;52.344;14.518;2023-08-07T08:45:14;99549.44;;;19.37;100.00
13695;BME280;6919;52.344;14.518;2023-08-07T08:47:46;99551.91;;;19.50;100.00
13695;BME280;6919;52.344;14.518;2023-08-07T08:50:17;99552.78;;;20.02;100.00
13695;BME280;6919;52.344;14.518;2023-08-07T08:52:45;99551.41;;;19.88;100.00
13695;BME280;6919;52.344;14.518;2023-08-07T08:55:14;99558.69;;;20.22;100.00
13695;BME280;6919;52.344;14.518;2023-08-07T08:57:43;99555.75;;;19.89;100.00
13695;BME280;6919;52.344;14.518;2023-08-07T09:00:14;99565.00;;;19.99;100.00
13695;BME280;6919;52.344;14.518;2023-08-07T09:02:51;99564.38;;;19.97;100.00
13695;BME280;6919;52.344;14.518;2023-08-07T09:05:22;99565.84;;;19.54;100.00
13695;BME280;6919;52.344;14.518;2023-08-07T09:07:50;99576.97;;;19.64;100.00
13695;BME280;6919;52.344;14.518;2023-08-07T09:10:19;99578.31;;;20.24;100.00
13695;BME280;6919;52.344;14.518;2023-08-07T09:12:57;99580.09;;;20.58;100.00
13695;BME280;6919;52.344;14.518;2023-08-07T09:15:31;99585.34;;;20.48;100.00
13695;BME280;6919;52.344;14.518;2023-08-07T09:18:06;99582.50;;;20.15;100.00
13695;BME280;6919;52.344;14.518;2023-08-07T09:20:37;99577.81;;;20.67;100.00
13695;BME280;6919;52.344;14.518;2023-08-07T09:23:06;99577.66;;;20.73;100.00
13695;BME280;6919;52.344;14.518;2023-08-07T09:25:35;99577.81;;;20.67;100.00
13695;BME280;6919;52.344;14.518;2023-08-07T09:28:05;99583.72;;;20.47;100.00
13695;BME280;6919;52.344;14.518;2023-08-07T09:30:35;99574.72;;;19.72;100.00
13695;BME280;6919;52.344;14.518;2023-08-07T09:33:06;99574.97;;;19.48;100.00
13695;BME280;6919;52.344;14.518;2023-08-07T09:35:34;99572.84;;;19.27;100.00
13695;BME280;6919;52.344;14.518;2023-08-07T09:38:02;99587.47;;;19.95;100.00
13695;BME280;6919;52.344;14.518;2023-08-07T09:40:31;99580.66;;;20.32;100.00
13695;BME280;6919;52.344;14.518;2023-08-07T09:43:01;99587.38;;;20.41;100.00
13695;BME280;6919;52.344;14.518;2023-08-07T09:45:30;99585.22;;;20.15;100.00
13695;BME280;6919;52.344;14.518;2023-08-07T09:48:00;99584.25;;;20.09;100.00
13695;BME280;6919;52.344;14.518;2023-08-07T09:50:30;99596.94;;;20.55;100.00
13695;BME280;6919;52.344;14.518;2023-08-07T09:53:02;99598.59;;;20.17;100.00
13695;BME280;6919;52.344;14.518;2023-08-07T09:55:30;99591.16;;;19.66;100.00
13695;BME280;6919;52.344;14.518;2023-08-07T09:58:02;99610.19;;;19.43;100.00
13695;BME280;6919;52.344;14.518;2023-08-07T10:00:34;99600.28;;;19.37;100.00
13695;BME280;6919;52.344;14.518;2023-08-07T10:03:04;99609.16;;;19.44;100.00
13695;BME280;6919;52.344;14.518;2023-08-07T10:05:34;99592.84;;;19.03;100.00
13695;BME280;6919;52.344;14.518;2023-08-07T10:08:03;99593.09;;;19.13;100.00
13695;BME280;6919;52.344;14.518;2023-08-07T10:10:32;99591.06;;;18.67;100.00
13695;BME280;6919;52.344;14.518;2023-08-07T10:13:02;99604.63;;;18.97;100.00
13695;BME280;6919;52.344;14.518;2023-08-07T10:15:32;99604.59;;;18.85;100.00
13695;BME280;6919;52.344;14.518;2023-08-07T10:18:01;99608.75;;;19.29;100.00
13695;BME280;6919;52.344;14.518;2023-08-07T10:20:34;99590.00;;;19.09;100.00
13695;BME280;6919;52.344;14.518;2023-08-07T10:23:07;99611.06;;;19.14;100.00
13695;BME280;6919;52.344;14.518;2023-08-07T10:25:41;99596.88;;;18.71;100.00
13695;BME280;6919;52.344;14.518;2023-08-07T10:28:16;99602.13;;;18.54;100.00
13695;BME280;6919;52.344;14.518;2023-08-07T10:30:46;99593.84;;;18.49;100.00
13695;BME280;6919;52.344;14.518;2023-08-07T10:33:16;99590.69;;;18.16;100.00
13695;BME280;6919;52.344;14.518;2023-08-07T10:35:48;99600.72;;;18.16;100.00
13695;BME280;6919;52.344;14.518;2023-08-07T10:38:20;99607.31;;;18.20;100.00
13695;BME280;6919;52.344;14.518;2023-08-07T10:41:01;99609.91;;;17.79;100.00
13695;BME280;6919;52.344;14.518;2023-08-07T10:43:30;99623.63;;;18.02;100.00
13695;BME280;6919;52.344;14.518;2023-08-07T10:46:05;99605.38;;;18.27;100.00
13695;BME280;6919;52.344;14.518;2023-08-07T10:48:41;99617.34;;;18.55;100.00
13695;BME280;6919;52.344;14.518;2023-08-07T10:51:14;99602.41;;;18.64;100.00
13695;BME280;6919;52.344;14.518;2023-08-07T10:53:45;99593.19;;;18.95;100.00
13695;BME280;6919;52.344;14.518;2023-08-07T10:56:17;99585.19;;;19.11;100.00
13695;BME280;6919;52.344;14.518;2023-08-07T10:58:51;99579.16;;;18.98;100.00
13695;BME280;6919;52.344;14.518;2023-08-07T11:01:24;99581.94;;;19.55;100.00
13695;BME280;6919;52.344;14.518;2023-08-07T11:03:58;99577.56;;;19.54;100.00
13695;BME280;6919;52.344;14.518;2023-08-07T11:06:30;99577.66;;;19.94;100.00
13695;BME280;6919;52.344;14.518;2023-08-07T11:09:00;99575.50;;;19.96;100.00
13695;BME280;6919;52.344;14.518;2023-08-07T11:11:34;99570.75;;;20.26;100.00
13695;BME280;6919;52.344;14.518;2023-08-07T11:14:07;99576.81;;;20.17;100.00
13695;BME280;6919;52.344;14.518;2023-08-07T11:16:35;99567.06;;;20.60;100.00
13695;BME280;6919;52.344;14.518;2023-08-07T11:19:05;99564.53;;;20.70;100.00
13695;BME280;6919;52.344;14.518;2023-08-07T11:21:35;99575.13;;;20.55;100.00
13695;BME280;6919;52.344;14.518;2023-08-07T11:24:04;99570.41;;;20.23;100.00
13695;BME280;6919;52.344;14.518;2023-08-07T11:26:32;99570.97;;;20.36;100.00
13695;BME280;6919;52.344;14.518;2023-08-07T11:29:00;99570.53;;;20.16;100.00
13695;BME280;6919;52.344;14.518;2023-08-07T11:31:29;99558.19;;;20.25;100.00
13695;BME280;6919;52.344;14.518;2023-08-07T11:33:58;99565.34;;;20.14;100.00
13695;BME280;6919;52.344;14.518;2023-08-07T11:36:26;99570.66;;;20.09;100.00
13695;BME280;6919;52.344;14.518;2023-08-07T11:38:56;99567.72;;;20.39;100.00
13695;BME280;6919;52.344;14.518;2023-08-07T11:41:24;99557.16;;;20.54;100.00
13695;BME280;6919;52.344;14.518;2023-08-07T11:43:53;99568.06;;;20.14;100.00
13695;BME280;6919;52.344;14.518;2023-08-07T11:46:24;99580.69;;;20.09;100.00
13695;BME280;6919;52.344;14.518;2023-08-07T11:48:53;99581.16;;;20.29;100.00
13695;BME280;6919;52.344;14.518;2023-08-07T11:51:23;99575.66;;;20.41;100.00
13695;BME280;6919;52.344;14.518;2023-08-07T11:53:51;99580.94;;;20.19;100.00
13695;BME280;6919;52.344;14.518;2023-08-07T11:56:27;99580.66;;;20.32;100.00
13695;BME280;6919;52.344;14.518;2023-08-07T11:58:57;99568.56;;;19.77;100.00
13695;BME280;6919;52.344;14.518;2023-08-07T12:01:27;99583.00;;;19.66;100.00
13695;BME280;6919;52.344;14.518;2023-08-07T12:04:08;99583.94;;;19.71;100.00
13695;BME280;6919;52.344;14.518;2023-08-07T12:06:37;99584.63;;;20.13;100.00
13695;BME280;6919;52.344;14.518;2023-08-07T12:09:07;99575.97;;;20.16;100.00
13695;BME280;6919;52.344;14.518;2023-08-07T12:11:40;99589.97;;;19.96;100.00
13695;BME280;6919;52.344;14.518;2023-08-07T12:14:14;99584.19;;;19.70;100.00
13695;BME280;6919;52.344;14.518;2023-08-07T12:16:45;99605.09;;;19.69;100.00
13695;BME280;6919;52.344;14.518;2023-08-07T12:19:13;99605.22;;;19.86;100.00
13695;BME280;6919;52.344;14.518;2023-08-07T12:21:42;99603.41;;;20.03;100.00
13695;BME280;6919;52.344;14.518;2023-08-07T12:24:12;99601.31;;;20.17;100.00
13695;BME280;6919;52.344;14.518;2023-08-07T12:26:42;99606.94;;;20.27;100.00
13695;BME280;6919;52.344;14.518;2023-08-07T12:29:10;99589.78;;;20.38;100.00
13695;BME280;6919;52.344;14.518;2023-08-07T12:31:38;99599.16;;;20.30;100.00
13695;BME280;6919;52.344;14.518;2023-08-07T12:34:07;99601.97;;;20.63;100.00
13695;BME280;6919;52.344;14.518;2023-08-07T12:36:40;99596.75;;;21.01;100.00
13695;BME280;6919;52.344;14.518;2023-08-07T12:39:08;99602.19;;;20.34;100.00
13695;BME280;6919;52.344;14.518;2023-08-07T12:41:37;99619.50;;;20.04;100.00
13695;BME280;6919;52.344;14.518;2023-08-07T12:44:09;99607.94;;;19.86;100.00
13695;BME280;6919;52.344;14.518;2023-08-07T12:46:39;99610.31;;;19.71;100.00
13695;BME280;6919;52.344;14.518;2023-08-07T12:49:09;99628.31;;;19.60;100.00
13695;BME280;6919;52.344;14.518;2023-08-07T12:51:37;99630.06;;;19.55;100.00
13695;BME280;6919;52.344;14.518;2023-08-07T12:54:06;99629.69;;;19.51;100.00
13695;BME280;6919;52.344;14.518;2023-08-07T12:56:34;99642.13;;;19.82;100.00
13695;BME280;6919;52.344;14.518;2023-08-07T12:59:02;99639.16;;;19.72;100.00
13695;BME280;6919;52.344;14.518;2023-08-07T13:01:32;99639.19;;;19.95;100.00
13695;BME280;6919;52.344;14.518;2023-08-07T13:04:00;99653.38;;;20.20;100.00